Time;durP1;ratioP1;P1;durP2;ratioP2;P2;SDS_P1;SDS_P2;PMS_P1;PMS_P2;Temp;Humidity;BMP_temperature;BMP_pressure;BME280_temperature;BME280_humidity;BME280_pressure;Samples;Min_cycle;Max_cycle;Signal;HPM_P1;HPM_P2
2023/03/14 00:00:14;;;;;;;5.82;1.15;;;;;;;16.17;49.18;96290.22;4994978;28;20022;-27
2023/03/14 00:02:40;;;;;;;6.88;1.40;;;;;;;16.30;48.59;96284.50;4994487;28;20387;-27
2023/03/14 00:05:06;;;;;;;6.53;1.60;;;;;;;16.12;49.00;96277.16;5007914;28;20050;-27
2023/03/14 00:07:35;;;;;;;2.80;0.80;;;;;;;16.19;48.26;96273.34;5001677;28;20014;-27
2023/03/14 00:10:05;;;;;;;2.97;1.08;;;;;;;16.15;48.33;96273.50;4993367;28;20030;-27
2023/03/14 00:12:31;;;;;;;6.40;1.42;;;;;;;16.21;48.63;96270.88;4994999;28;20026;-27
2023/03/14 00:14:57;;;;;;;5.63;0.98;;;;;;;16.24;48.17;96266.44;4995436;28;20408;-27
2023/03/14 00:17:22;;;;;;;7.90;1.40;;;;;;;16.20;48.04;96263.13;5001447;28;20018;-27
2023/03/14 00:19:52;;;;;;;5.78;1.48;;;;;;;16.22;47.93;96255.97;5002424;28;20026;-27
2023/03/14 00:22:17;;;;;;;4.40;1.55;;;;;;;16.21;48.02;96259.91;5005067;28;20026;-27
2023/03/14 00:24:43;;;;;;;7.47;2.00;;;;;;;16.24;47.28;96255.50;4998883;28;20034;-27
2023/03/14 00:27:09;;;;;;;3.47;1.25;;;;;;;16.25;47.71;96255.03;4998804;28;20029;-27
2023/03/14 00:29:35;;;;;;;5.10;1.60;;;;;;;16.08;48.01;96246.47;4998218;28;20113;-27
2023/03/14 00:32:00;;;;;;;5.13;0.88;;;;;;;16.02;48.11;96242.88;4998154;28;20084;-27
2023/03/14 00:34:29;;;;;;;6.38;1.35;;;;;;;16.25;47.22;96232.38;5004861;28;20054;-27
2023/03/14 00:36:55;;;;;;;3.58;0.98;;;;;;;16.07;47.79;96222.34;5003966;28;20050;-27
2023/03/14 00:39:20;;;;;;;4.30;0.90;;;;;;;16.21;47.49;96223.59;4998806;28;20204;-27
2023/03/14 00:41:46;;;;;;;3.50;0.93;;;;;;;16.31;47.00;96219.59;4998020;28;20030;-27
2023/03/14 00:44:11;;;;;;;6.20;1.00;;;;;;;16.21;46.90;96209.91;4998541;28;20022;-27
2023/03/14 00:46:37;;;;;;;3.03;1.15;;;;;;;16.18;47.15;96214.38;5005274;28;20030;-27
2023/03/14 00:49:02;;;;;;;3.88;1.00;;;;;;;16.14;47.10;96206.31;5003433;28;20026;-27
2023/03/14 00:51:28;;;;;;;3.90;0.75;;;;;;;16.21;47.08;96198.97;4999818;28;20394;-27
2023/03/14 00:53:53;;;;;;;6.18;1.00;;;;;;;16.21;46.97;96201.69;5003730;28;20032;-27
2023/03/14 00:56:18;;;;;;;4.72;1.00;;;;;;;16.10;46.87;96194.03;4997715;28;20113;-27
2023/03/14 00:58:44;;;;;;;5.18;1.00;;;;;;;16.24;46.69;96176.16;4998274;28;20080;-27
2023/03/14 01:01:13;;;;;;;4.97;1.10;;;;;;;16.17;47.52;96155.41;4997773;28;20021;-27
2023/03/14 01:03:38;;;;;;;5.05;1.08;;;;;;;16.09;47.53;96155.00;4999242;28;20037;-27
2023/03/14 01:06:10;;;;;;;5.80;1.23;;;;;;;16.06;47.57;96161.41;5009970;28;20022;-27
2023/03/14 01:08:35;;;;;;;2.22;0.80;;;;;;;16.03;47.10;96162.34;5004391;28;20423;-27
2023/03/14 01:11:06;;;;;;;4.80;1.10;;;;;;;16.13;47.40;96155.56;4997656;28;20019;-27
2023/03/14 01:13:32;;;;;;;4.15;0.95;;;;;;;16.13;47.34;96152.84;4997634;28;20022;-27
2023/03/14 01:16:02;;;;;;;5.35;1.42;;;;;;;16.08;47.28;96141.78;4998287;28;20083;-27
2023/03/14 01:18:27;;;;;;;5.50;1.10;;;;;;;16.03;47.68;96124.06;5001444;28;20378;-27
2023/03/14 01:20:53;;;;;;;3.45;1.30;;;;;;;16.16;47.35;96121.06;5006869;28;20064;-27
2023/03/14 01:23:18;;;;;;;6.63;0.90;;;;;;;16.11;47.49;96122.44;5003866;28;20487;-27
2023/03/14 01:25:44;;;;;;;4.72;1.10;;;;;;;16.07;47.68;96124.59;4997426;28;20378;-27
2023/03/14 01:28:09;;;;;;;3.95;1.00;;;;;;;16.10;47.58;96115.47;4997618;28;20470;-27
2023/03/14 01:30:36;;;;;;;6.82;1.73;;;;;;;16.02;48.08;96102.63;4997172;28;20018;-27
2023/03/14 01:33:02;;;;;;;8.07;2.75;;;;;;;15.97;48.09;96093.09;4998282;28;20113;-27
2023/03/14 01:35:27;;;;;;;10.65;2.53;;;;;;;15.88;48.76;96086.97;5010078;28;20109;-27
2023/03/14 01:37:52;;;;;;;7.32;2.47;;;;;;;16.02;48.68;96091.69;5002377;28;20441;-26
2023/03/14 01:40:18;;;;;;;5.13;2.10;;;;;;;16.03;49.31;96087.75;4998154;28;20026;-27
2023/03/14 01:42:55;;;;;;;10.07;2.00;;;;;;;15.99;49.25;96079.72;4996893;28;20068;-27
2023/03/14 01:46:05;;;;;;;4.60;1.67;;;;;;;16.08;49.42;96090.56;4998694;28;20038;-27
2023/03/14 01:48:46;;;;;;;6.90;1.90;;;;;;;16.02;49.77;96073.31;4992800;28;20034;-27
2023/03/14 01:51:17;;;;;;;7.03;1.90;;;;;;;16.07;49.75;96075.38;5003263;28;20493;-27
2023/03/14 01:53:43;;;;;;;7.05;1.77;;;;;;;15.89;50.34;96067.34;5005893;28;20029;-27
2023/03/14 01:56:13;;;;;;;6.97;1.63;;;;;;;16.03;50.24;96072.09;5000619;28;20097;-27
2023/03/14 01:58:41;;;;;;;2.97;1.40;;;;;;;16.15;49.94;96071.06;4997099;28;20482;-27
2023/03/14 02:01:08;;;;;;;5.70;1.75;;;;;;;16.10;50.04;96074.44;4996639;28;20023;-27
2023/03/14 02:03:44;;;;;;;8.20;1.80;;;;;;;16.15;50.17;96070.28;4996924;28;20132;-27
2023/03/14 02:06:11;;;;;;;5.32;1.52;;;;;;;16.22;50.17;96063.69;5000207;28;20018;-27
2023/03/14 02:08:39;;;;;;;7.95;1.92;;;;;;;15.96;50.81;96060.75;5005486;28;20058;-26
2023/03/14 02:11:07;;;;;;;6.53;1.63;;;;;;;16.07;50.81;96045.28;5002831;28;20031;-26
2023/03/14 02:13:32;;;;;;;9.02;1.75;;;;;;;16.03;50.71;96033.03;4996016;28;20019;-26
2023/03/14 02:15:58;;;;;;;6.80;1.70;;;;;;;15.87;50.85;96020.56;4996767;28;20025;-27
2023/03/14 02:18:23;;;;;;;8.82;2.00;;;;;;;16.02;50.89;96017.84;4996164;28;20038;-27
2023/03/14 02:20:55;;;;;;;6.60;1.73;;;;;;;16.01;51.07;96013.59;4996789;28;20025;-27
2023/03/14 02:23:32;;;;;;;4.37;1.47;;;;;;;16.08;50.67;96019.44;5006816;28;20018;-27
2023/03/14 02:26:07;;;;;;;5.30;1.63;;;;;;;16.06;51.04;96008.22;4998163;28;20026;-27
2023/03/14 02:28:33;;;;;;;7.95;1.92;;;;;;;15.99;51.01;95997.66;5001270;28;20109;-27
2023/03/14 02:30:58;;;;;;;6.38;1.48;;;;;;;15.96;51.06;95987.66;4996467;28;20102;-27
2023/03/14 02:33:24;;;;;;;6.25;1.70;;;;;;;16.06;50.93;95975.41;4996238;28;20029;-27
2023/03/14 02:36:01;;;;;;;7.28;1.95;;;;;;;15.83;51.26;95976.25;4995747;28;20058;-27
2023/03/14 02:38:31;;;;;;;6.18;1.67;;;;;;;15.89;51.36;95971.63;5003249;28;20029;-27
2023/03/14 02:40:56;;;;;;;7.82;2.55;;;;;;;15.95;51.18;95963.53;5002223;28;20081;-27
2023/03/14 02:43:22;;;;;;;6.90;1.80;;;;;;;15.96;51.14;95962.28;5003027;28;20029;-27
2023/03/14 02:45:49;;;;;;;5.95;1.45;;;;;;;15.88;51.39;95950.22;4995800;28;20090;-27
2023/03/14 02:48:25;;;;;;;7.53;1.60;;;;;;;15.96;50.97;95952.09;4996273;28;20116;-27
2023/03/14 02:50:55;;;;;;;4.75;1.35;;;;;;;15.80;51.45;95949.88;4995629;28;20027;-27
2023/03/14 02:53:24;;;;;;;5.35;1.40;;;;;;;15.79;51.46;95945.63;5002862;28;20034;-27
2023/03/14 02:55:50;;;;;;;5.35;1.67;;;;;;;15.92;51.08;95943.34;4998449;28;20040;-27
2023/03/14 02:58:17;;;;;;;6.28;1.60;;;;;;;15.89;50.98;95940.81;4999159;28;20364;-27
2023/03/14 03:00:43;;;;;;;3.80;1.35;;;;;;;15.88;51.17;95931.09;5002584;28;20022;-27
2023/03/14 03:03:08;;;;;;;5.68;1.60;;;;;;;15.94;50.99;95929.97;4995604;28;20100;-27
2023/03/14 03:05:34;;;;;;;6.60;1.40;;;;;;;15.98;50.86;95922.31;5003368;28;20105;-27
2023/03/14 03:08:00;;;;;;;6.88;1.35;;;;;;;15.89;51.30;95921.66;4995496;28;20106;-27
2023/03/14 03:10:26;;;;;;;9.52;2.20;;;;;;;15.83;51.07;95916.09;5002162;28;20148;-26
2023/03/14 03:12:51;;;;;;;6.95;2.00;;;;;;;15.95;50.98;95917.78;5002190;28;20030;-26
2023/03/14 03:15:17;;;;;;;6.43;1.88;;;;;;;15.86;50.72;95923.34;4999341;28;20017;-27
2023/03/14 03:17:43;;;;;;;6.13;1.73;;;;;;;15.83;51.22;95932.50;4998308;28;20019;-27
2023/03/14 03:20:09;;;;;;;7.20;1.75;;;;;;;15.96;50.58;95930.22;4995382;28;20157;-27
2023/03/14 03:22:36;;;;;;;5.47;1.63;;;;;;;15.72;51.36;95935.03;5001551;28;20017;-27
2023/03/14 03:25:03;;;;;;;4.65;1.50;;;;;;;15.66;51.02;95934.22;4997105;28;20037;-27
2023/03/14 03:27:31;;;;;;;7.80;1.63;;;;;;;15.89;50.08;95921.66;5001007;28;20475;-27
2023/03/14 03:29:57;;;;;;;4.47;1.48;;;;;;;15.88;50.40;95915.44;5007883;28;20480;-27
2023/03/14 03:32:22;;;;;;;4.45;1.77;;;;;;;15.66;50.81;95906.88;5001813;28;20026;-27
2023/03/14 03:34:48;;;;;;;7.18;1.40;;;;;;;15.79;50.39;95905.38;4993775;28;20030;-27
2023/03/14 03:37:14;;;;;;;3.38;1.50;;;;;;;15.71;50.76;95900.72;4995651;28;20110;-27
2023/03/14 03:39:39;;;;;;;6.45;1.77;;;;;;;15.83;50.50;95894.22;4993926;28;20077;-27
2023/03/14 03:42:04;;;;;;;7.97;1.73;;;;;;;15.76;50.53;95880.94;5001609;28;20104;-27
2023/03/14 03:44:30;;;;;;;4.68;1.42;;;;;;;15.60;50.83;95884.16;4997466;28;20101;-27
2023/03/14 03:46:55;;;;;;;4.72;1.75;;;;;;;15.81;50.45;95874.81;5006995;28;20062;-27
2023/03/14 03:49:21;;;;;;;7.72;1.58;;;;;;;15.74;50.75;95869.72;4995839;28;20409;-27
2023/03/14 03:51:47;;;;;;;7.00;1.40;;;;;;;15.68;50.95;95858.72;4994871;28;20590;-27
2023/03/14 03:54:12;;;;;;;3.65;1.50;;;;;;;16.00;50.43;95864.41;4993637;28;20029;-27
2023/03/14 03:56:38;;;;;;;6.10;1.40;;;;;;;15.88;50.35;95865.47;5003864;28;20113;-27
2023/03/14 03:59:03;;;;;;;4.28;1.73;;;;;;;15.71;50.82;95871.41;5001780;28;20101;-27
2023/03/14 04:01:29;;;;;;;5.55;1.60;;;;;;;15.91;50.76;95859.81;5005466;28;20038;-27
2023/03/14 04:03:54;;;;;;;3.95;1.20;;;;;;;15.65;51.30;95858.91;5001762;28;20057;-27
2023/03/14 04:06:20;;;;;;;5.65;1.70;;;;;;;15.83;50.74;95855.94;5002666;28;20077;-27
2023/03/14 04:08:45;;;;;;;5.20;1.63;;;;;;;15.71;51.14;95835.88;4999366;28;20046;-27
2023/03/14 04:11:11;;;;;;;6.88;2.08;;;;;;;15.75;51.00;95843.91;4998628;28;20113;-27
2023/03/14 04:13:36;;;;;;;10.82;2.47;;;;;;;15.74;50.76;95845.13;4997269;28;20034;-26
2023/03/14 04:16:01;;;;;;;6.65;1.65;;;;;;;15.80;50.97;95838.53;5005626;28;20355;-27
2023/03/14 04:18:30;;;;;;;5.93;1.70;;;;;;;15.76;50.45;95832.50;5004852;28;20018;-27
2023/03/14 04:20:57;;;;;;;4.63;1.63;;;;;;;15.58;51.03;95838.16;4999342;28;20033;-27
2023/03/14 04:23:24;;;;;;;3.55;1.52;;;;;;;15.70;50.71;95839.13;5005701;28;20475;-27
2023/03/14 04:25:53;;;;;;;3.85;1.55;;;;;;;15.68;50.17;95820.44;4998768;28;20430;-27
2023/03/14 04:28:18;;;;;;;3.58;1.27;;;;;;;15.71;50.01;95824.19;5005537;28;20018;-27
2023/03/14 04:30:43;;;;;;;5.47;1.75;;;;;;;15.41;50.56;95818.00;5003675;28;20033;-27
2023/03/14 04:33:09;;;;;;;5.82;1.98;;;;;;;15.46;50.93;95807.16;5000268;28;20536;-27
2023/03/14 04:35:35;;;;;;;5.55;1.60;;;;;;;15.60;50.39;95811.13;5003924;28;20475;-27
2023/03/14 04:38:00;;;;;;;5.10;1.63;;;;;;;15.66;50.55;95803.00;4998260;28;20022;-27
2023/03/14 04:40:26;;;;;;;5.75;1.63;;;;;;;15.71;50.41;95805.06;4998523;28;20033;-27
2023/03/14 04:42:52;;;;;;;5.10;1.77;;;;;;;15.51;51.15;95794.81;4997961;28;20030;-27
2023/03/14 04:45:17;;;;;;;5.72;1.25;;;;;;;15.60;51.01;95786.50;4999376;28;20099;-27
2023/03/14 04:47:43;;;;;;;4.57;1.67;;;;;;;15.58;51.14;95790.97;5010860;28;20037;-27
2023/03/14 04:50:09;;;;;;;3.92;1.80;;;;;;;15.61;51.00;95798.94;5003852;28;20030;-27
2023/03/14 04:52:34;;;;;;;4.28;1.60;;;;;;;15.61;51.00;95800.94;4998637;28;20397;-27
2023/03/14 04:55:00;;;;;;;4.75;1.50;;;;;;;15.33;52.03;95814.88;4997751;28;20019;-27
2023/03/14 04:57:25;;;;;;;4.30;1.35;;;;;;;15.53;51.40;95802.53;4998231;28;20386;-27
2023/03/14 04:59:51;;;;;;;6.93;1.52;;;;;;;15.65;51.34;95806.97;4997815;28;20474;-27
2023/03/14 05:02:16;;;;;;;9.50;1.63;;;;;;;15.70;51.37;95796.09;4997494;28;20038;-27
2023/03/14 05:04:41;;;;;;;5.40;1.60;;;;;;;15.38;52.23;95810.75;5012009;28;20026;-26
2023/03/14 05:07:07;;;;;;;5.25;1.63;;;;;;;15.70;51.67;95815.22;5004326;28;21052;-27
2023/03/14 05:09:32;;;;;;;5.80;1.60;;;;;;;15.46;52.60;95807.16;4997886;28;20026;-27
2023/03/14 05:11:58;;;;;;;5.30;1.98;;;;;;;15.32;52.48;95818.88;5003306;28;20029;-27
2023/03/14 05:14:23;;;;;;;4.60;1.90;;;;;;;15.43;52.42;95832.69;4997519;28;20030;-27
2023/03/14 05:16:49;;;;;;;4.95;1.48;;;;;;;15.63;52.27;95834.78;4997791;28;20030;-27
2023/03/14 05:19:14;;;;;;;6.45;1.45;;;;;;;15.57;52.36;95847.63;5000756;28;20076;-27
2023/03/14 05:21:39;;;;;;;6.65;1.85;;;;;;;15.60;52.35;95848.63;5000688;28;20085;-27
2023/03/14 05:24:05;;;;;;;5.93;1.67;;;;;;;15.60;52.59;95854.84;4997022;28;20125;-27
2023/03/14 05:26:31;;;;;;;6.70;1.80;;;;;;;15.55;52.74;95855.53;4997251;28;20019;-27
2023/03/14 05:28:56;;;;;;;5.82;1.75;;;;;;;15.59;52.86;95838.91;4997820;28;20028;-27
2023/03/14 05:31:21;;;;;;;3.50;1.30;;;;;;;15.47;53.53;95837.97;5004606;28;20095;-27
2023/03/14 05:33:47;;;;;;;5.32;1.45;;;;;;;15.70;53.21;95842.56;5003481;28;20022;-27
2023/03/14 05:36:15;;;;;;;10.45;1.85;;;;;;;15.50;53.61;95822.59;5003906;28;20026;-27
2023/03/14 05:38:41;;;;;;;5.95;2.33;;;;;;;15.51;53.71;95844.00;5000243;28;20394;-27
2023/03/14 05:41:06;;;;;;;7.45;1.90;;;;;;;15.33;54.21;95839.47;5000074;28;20018;-27
2023/03/14 05:43:31;;;;;;;4.60;1.70;;;;;;;15.65;53.65;95847.97;4996991;28;20529;-27
2023/03/14 05:45:57;;;;;;;6.35;1.63;;;;;;;15.51;53.96;95849.47;5002795;28;20113;-27
2023/03/14 05:48:23;;;;;;;7.43;1.85;;;;;;;15.58;53.90;95848.38;4998783;28;20022;-27
2023/03/14 05:50:54;;;;;;;9.60;2.05;;;;;;;15.51;54.23;95854.91;5002666;28;20364;-27
2023/03/14 05:53:19;;;;;;;6.22;2.15;;;;;;;15.61;53.92;95858.34;5003685;28;20022;-27
2023/03/14 05:55:44;;;;;;;7.00;1.85;;;;;;;15.30;55.06;95845.91;4996773;28;20045;-27
2023/03/14 05:58:10;;;;;;;7.82;2.00;;;;;;;15.33;54.69;95844.22;4995327;28;20532;-27
2023/03/14 06:00:35;;;;;;;7.60;1.73;;;;;;;15.48;54.49;95838.72;4997323;28;20045;-27
2023/03/14 06:03:01;;;;;;;5.75;1.52;;;;;;;15.46;54.49;95845.41;5006195;28;20394;-27
2023/03/14 06:05:26;;;;;;;4.00;1.95;;;;;;;15.60;54.32;95856.81;5009839;28;20113;-27
2023/03/14 06:07:51;;;;;;;6.45;1.85;;;;;;;15.59;54.16;95861.53;4998766;28;20481;-27
2023/03/14 06:10:17;;;;;;;7.72;1.63;;;;;;;15.62;54.30;95854.38;5001115;28;20026;-27
2023/03/14 06:12:42;;;;;;;5.63;1.55;;;;;;;15.44;54.53;95849.84;4996891;28;20383;-27
2023/03/14 06:15:08;;;;;;;4.13;1.45;;;;;;;15.49;54.42;95854.63;4996200;28;20025;-27
2023/03/14 06:17:33;;;;;;;5.28;1.75;;;;;;;15.49;54.54;95853.88;4996448;28;20166;-27
2023/03/14 06:19:59;;;;;;;4.38;1.83;;;;;;;15.44;54.42;95845.13;4996945;28;20064;-27
2023/03/14 06:22:24;;;;;;;4.05;1.67;;;;;;;15.61;54.09;95833.72;5002408;28;20052;-27
2023/03/14 06:24:50;;;;;;;6.95;1.67;;;;;;;15.55;53.86;95832.91;5003344;28;20021;-27
2023/03/14 06:27:15;;;;;;;5.80;1.60;;;;;;;15.40;54.23;95806.31;4999179;28;20088;-27
2023/03/14 06:29:41;;;;;;;6.50;1.98;;;;;;;15.51;54.08;95758.53;5000291;28;20080;-27
2023/03/14 06:32:06;;;;;;;6.15;1.35;;;;;;;15.13;54.82;95686.44;4996609;28;20387;-27
2023/03/14 06:34:32;;;;;;;4.78;1.50;;;;;;;15.55;53.95;95721.59;4995644;28;20379;-27
2023/03/14 06:36:57;;;;;;;4.05;1.30;;;;;;;15.57;53.79;95719.16;4995810;28;20475;-27
2023/03/14 06:39:22;;;;;;;4.75;1.63;;;;;;;15.39;54.39;95668.19;4996256;28;20026;-27
2023/03/14 06:41:48;;;;;;;8.52;1.20;;;;;;;15.04;55.41;95692.78;5002446;28;20033;-27
2023/03/14 06:44:15;;;;;;;6.68;1.40;;;;;;;15.52;53.90;95762.75;4996298;28;20022;-27
2023/03/14 06:46:40;;;;;;;8.95;2.10;;;;;;;15.59;53.85;95743.25;4995758;28;20026;-27
2023/03/14 06:49:06;;;;;;;7.85;1.52;;;;;;;15.17;54.84;95684.28;4995781;28;20026;-27
2023/03/14 06:51:31;;;;;;;5.53;1.67;;;;;;;15.31;54.32;95719.00;4996334;28;20026;-27
2023/03/14 06:53:57;;;;;;;6.32;1.40;;;;;;;15.64;53.31;95731.66;4999918;28;20022;-27
2023/03/14 06:56:22;;;;;;;4.80;1.40;;;;;;;15.56;53.74;95714.16;4997706;28;20441;-27
2023/03/14 06:58:48;;;;;;;3.17;1.10;;;;;;;15.31;54.01;95699.88;5001122;28;20466;-27
2023/03/14 07:01:22;;;;;;;6.05;1.73;;;;;;;15.66;53.20;95721.75;4995730;28;20114;-27
2023/03/14 07:03:47;;;;;;;8.48;2.00;;;;;;;15.71;53.31;95712.13;4995959;28;20018;-26
2023/03/14 07:06:13;;;;;;;7.00;1.50;;;;;;;15.25;54.49;95690.84;4995622;28;20069;-26
2023/03/14 07:08:39;;;;;;;4.53;1.52;;;;;;;15.76;53.15;95695.78;4996124;28;20030;-27
2023/03/14 07:11:05;;;;;;;5.47;1.48;;;;;;;15.73;53.18;95698.72;5001760;28;20077;-27
2023/03/14 07:13:30;;;;;;;5.75;1.60;;;;;;;15.08;54.68;95681.66;5001356;28;20018;-27
2023/03/14 07:15:55;;;;;;;5.32;1.40;;;;;;;15.42;53.90;95678.19;4996270;28;20113;-27
2023/03/14 07:18:21;;;;;;;5.53;1.25;;;;;;;15.21;54.35;95687.53;4995386;28;20022;-27
2023/03/14 07:20:47;;;;;;;5.30;1.27;;;;;;;15.08;54.71;95673.47;4995848;28;20518;-27
2023/03/14 07:23:12;;;;;;;9.15;1.80;;;;;;;15.89;52.55;95679.06;4995319;28;20027;-26
2023/03/14 07:25:38;;;;;;;4.28;1.20;;;;;;;15.75;53.24;95688.81;4995420;28;20026;-26
2023/03/14 07:28:04;;;;;;;4.20;1.55;;;;;;;15.85;52.50;95689.44;5009816;28;20079;-26
2023/03/14 07:30:29;;;;;;;3.92;1.30;;;;;;;15.78;52.60;95709.00;5003556;28;20386;-26
2023/03/14 07:32:54;;;;;;;5.80;1.60;;;;;;;16.09;51.99;95709.13;4997399;28;20041;-27
2023/03/14 07:35:20;;;;;;;3.85;1.40;;;;;;;16.11;52.20;95714.88;4997650;28;20024;-27
2023/03/14 07:37:45;;;;;;;5.90;1.52;;;;;;;15.99;52.27;95709.75;4999213;28;20518;-27
2023/03/14 07:40:14;;;;;;;8.48;1.98;;;;;;;16.01;52.05;95705.28;4999786;28;20045;-27
2023/03/14 07:42:40;;;;;;;5.15;1.70;;;;;;;16.16;51.84;95705.22;5002527;28;20018;-27
2023/03/14 07:45:07;;;;;;;5.95;1.17;;;;;;;16.02;52.36;95695.88;5001893;28;20033;-27
2023/03/14 07:47:32;;;;;;;6.93;1.52;;;;;;;15.84;52.62;95674.25;5006842;28;20040;-27
2023/03/14 07:49:58;;;;;;;7.57;1.35;;;;;;;15.97;52.22;95688.34;4999152;28;20462;-27
2023/03/14 07:52:24;;;;;;;5.28;1.42;;;;;;;15.89;52.33;95679.06;4999591;28;20538;-26
2023/03/14 07:54:49;;;;;;;6.25;1.60;;;;;;;15.69;53.22;95668.88;4999170;28;20041;-26
2023/03/14 07:57:15;;;;;;;6.05;1.10;;;;;;;16.10;52.39;95669.59;5005597;28;20458;-26
2023/03/14 07:59:40;;;;;;;6.50;1.40;;;;;;;16.06;52.79;95658.13;5005947;28;20394;-27
2023/03/14 08:02:10;;;;;;;9.50;1.83;;;;;;;15.82;53.85;95630.25;4998320;28;20058;-27
2023/03/14 08:04:36;;;;;;;6.97;1.98;;;;;;;15.84;53.79;95633.25;5006670;28;20030;-27
2023/03/14 08:07:01;;;;;;;10.20;1.75;;;;;;;16.17;53.34;95636.34;4998616;28;20025;-27
2023/03/14 08:09:28;;;;;;;10.38;1.70;;;;;;;15.91;54.17;95635.56;5002151;28;20018;-27
2023/03/14 08:11:53;;;;;;;5.47;1.10;;;;;;;16.21;53.67;95630.66;5000458;28;20028;-27
2023/03/14 08:14:19;;;;;;;6.22;1.40;;;;;;;16.17;53.77;95641.09;5003608;28;20390;-27
2023/03/14 08:16:45;;;;;;;7.18;1.17;;;;;;;16.27;53.71;95638.94;5005780;28;20026;-26
2023/03/14 08:19:10;;;;;;;7.88;1.50;;;;;;;16.32;53.54;95638.25;4998630;28;20069;-26
2023/03/14 08:21:36;;;;;;;8.07;1.63;;;;;;;16.17;54.36;95639.09;4998497;28;20022;-27
2023/03/14 08:24:01;;;;;;;8.55;2.20;;;;;;;16.15;54.62;95644.28;4999069;28;20391;-27
2023/03/14 08:26:27;;;;;;;11.25;1.92;;;;;;;15.98;55.17;95650.81;4997056;28;20022;-27
2023/03/14 08:28:52;;;;;;;7.95;2.20;;;;;;;15.80;56.03;95651.84;5012274;28;20040;-27
2023/03/14 08:31:18;;;;;;;7.68;1.88;;;;;;;15.94;56.01;95651.03;5000509;28;20114;-27
2023/03/14 08:33:43;;;;;;;7.38;1.95;;;;;;;16.23;55.31;95658.28;5002656;28;20018;-27
2023/03/14 08:36:09;;;;;;;10.70;2.72;;;;;;;15.84;56.85;95666.06;4999145;28;20407;-27
2023/03/14 08:38:34;;;;;;;8.90;2.08;;;;;;;15.93;56.97;95673.38;4998096;28;20352;-27
2023/03/14 08:41:01;;;;;;;11.73;2.72;;;;;;;16.04;57.00;95660.59;4997856;28;20022;-27
2023/03/14 08:43:28;;;;;;;7.47;2.33;;;;;;;16.06;57.36;95665.59;4998574;28;20018;-27
2023/03/14 08:45:57;;;;;;;9.05;2.70;;;;;;;15.73;58.05;95657.72;5009926;28;20390;-27
2023/03/14 08:48:23;;;;;;;7.80;2.80;;;;;;;16.18;57.11;95661.72;5006255;28;20053;-27
2023/03/14 08:50:48;;;;;;;10.48;3.63;;;;;;;15.78;58.39;95665.25;4997689;28;20057;-27
2023/03/14 08:53:14;;;;;;;14.00;3.08;;;;;;;16.05;57.71;95651.16;4997835;28;20030;-26
2023/03/14 08:55:39;;;;;;;10.23;3.08;;;;;;;15.96;58.26;95662.22;5011059;28;20018;-27
2023/03/14 08:58:05;;;;;;;8.32;2.63;;;;;;;15.93;58.67;95665.94;4997661;28;20058;-27
2023/03/14 09:00:30;;;;;;;11.25;3.00;;;;;;;16.00;58.40;95659.28;4998147;28;20064;-27
2023/03/14 09:02:56;;;;;;;8.13;2.33;;;;;;;15.96;58.50;95650.53;5004196;28;20486;-27
2023/03/14 09:05:21;;;;;;;10.07;2.53;;;;;;;15.85;58.85;95653.88;4996802;28;20406;-27
2023/03/14 09:07:46;;;;;;;9.70;2.80;;;;;;;16.28;57.75;95641.19;4996910;28;20041;-27
2023/03/14 09:10:12;;;;;;;8.23;2.70;;;;;;;16.04;58.67;95641.44;4997392;28;20033;-27
2023/03/14 09:12:37;;;;;;;12.15;3.05;;;;;;;15.77;59.35;95630.94;4997860;28;20021;-27
2023/03/14 09:15:03;;;;;;;13.85;3.15;;;;;;;16.00;58.89;95621.75;4997503;28;20026;-27
2023/03/14 09:17:29;;;;;;;11.40;2.58;;;;;;;15.56;60.35;95626.72;5002888;28;20025;-27
2023/03/14 09:19:55;;;;;;;11.57;2.83;;;;;;;15.70;60.04;95625.91;4999262;28;20026;-27
2023/03/14 09:22:21;;;;;;;11.07;3.45;;;;;;;15.75;60.00;95609.53;5003270;28;20158;-27
2023/03/14 09:24:47;;;;;;;12.70;3.05;;;;;;;15.81;60.45;95612.34;5005068;28;20034;-27
2023/03/14 09:27:12;;;;;;;12.35;2.80;;;;;;;15.69;60.54;95616.19;4997557;28;20028;-27
2023/03/14 09:29:38;;;;;;;12.48;2.85;;;;;;;16.04;59.36;95608.63;4997178;28;20026;-27
2023/03/14 09:32:03;;;;;;;12.63;3.75;;;;;;;16.03;59.76;95601.66;5004213;28;20492;-27
2023/03/14 09:34:29;;;;;;;10.77;3.28;;;;;;;16.03;59.76;95609.84;5003583;28;20490;-27
2023/03/14 09:36:54;;;;;;;12.75;3.60;;;;;;;15.77;60.72;95609.81;4996940;28;20410;-27
2023/03/14 09:39:20;;;;;;;12.93;3.55;;;;;;;15.98;59.61;95607.81;4996435;28;20037;-27
2023/03/14 09:41:52;;;;;;;10.40;2.88;;;;;;;15.80;60.60;95614.34;4997019;28;20463;-27
2023/03/14 09:44:30;;;;;;;12.40;3.42;;;;;;;16.06;59.94;95595.22;4996380;28;20034;-27
2023/03/14 09:47:00;;;;;;;8.40;3.00;;;;;;;15.87;60.67;95607.69;5009147;28;20030;-27
2023/03/14 09:49:35;;;;;;;19.60;3.22;;;;;;;16.11;59.84;95599.22;4998890;28;20022;-27
2023/03/14 09:52:04;;;;;;;11.52;3.65;;;;;;;15.85;60.82;95604.66;5001474;28;20112;-27
2023/03/14 09:54:40;;;;;;;13.50;3.65;;;;;;;15.86;60.78;95606.19;4997869;28;20402;-27
2023/03/14 09:57:10;;;;;;;11.75;3.13;;;;;;;16.10;60.01;95600.47;4996135;28;20394;-27
2023/03/14 09:59:37;;;;;;;10.00;3.30;;;;;;;15.92;60.91;95592.59;4997502;28;20054;-27
2023/03/14 10:02:15;;;;;;;10.13;3.10;;;;;;;15.97;60.66;95603.56;4996327;28;20047;-27
2023/03/14 10:04:44;;;;;;;12.25;3.03;;;;;;;15.68;61.57;95601.78;5010954;28;20403;-27
2023/03/14 10:07:25;;;;;;;9.65;3.17;;;;;;;15.90;61.17;95606.72;5003271;28;20033;-27
2023/03/14 10:09:51;;;;;;;12.30;3.53;;;;;;;15.85;61.65;95593.75;5004923;28;20505;-27
2023/03/14 10:12:18;;;;;;;10.82;3.58;;;;;;;15.95;61.37;95597.81;4996131;28;20022;-27
2023/03/14 10:14:53;;;;;;;15.38;3.40;;;;;;;15.94;61.30;95590.88;4996814;28;20113;-27
2023/03/14 10:17:20;;;;;;;9.80;3.03;;;;;;;15.69;62.29;95591.59;4996003;28;20022;-27
2023/03/14 10:19:55;;;;;;;12.73;3.75;;;;;;;15.78;62.52;95577.75;5003502;28;20032;-27
2023/03/14 10:22:24;;;;;;;11.50;4.28;;;;;;;15.41;64.08;95575.56;4999960;28;20348;-27
2023/03/14 10:24:56;;;;;;;17.13;3.95;;;;;;;15.86;62.99;95572.63;4999014;28;20033;-27
2023/03/14 10:27:33;;;;;;;14.05;4.78;;;;;;;16.06;62.80;95562.41;4999540;28;20022;-27
2023/03/14 10:30:28;;;;;;;14.73;4.28;;;;;;;15.64;64.57;95562.19;4998502;28;20458;-26
2023/03/14 10:32:54;;;;;;;10.73;3.75;;;;;;;16.01;63.30;95557.63;4996066;28;20098;-27
2023/03/14 10:35:21;;;;;;;14.98;3.60;;;;;;;16.02;63.42;95550.91;4998240;28;20463;-27
2023/03/14 10:37:51;;;;;;;10.30;3.50;;;;;;;16.10;63.20;95545.75;5000568;28;20038;-27
2023/03/14 10:40:20;;;;;;;10.38;3.50;;;;;;;15.88;64.13;95542.81;5002846;28;20029;-27
2023/03/14 10:42:47;;;;;;;11.32;3.60;;;;;;;15.97;63.91;95535.19;4994486;28;20427;-27
2023/03/14 10:45:45;;;;;;;9.00;2.90;;;;;;;15.92;64.45;95538.66;4996874;28;20363;-27
2023/03/14 10:48:14;;;;;;;11.07;2.75;;;;;;;15.95;63.18;95534.91;4998632;28;20056;-27
2023/03/14 10:50:48;;;;;;;10.00;4.38;;;;;;;16.09;63.72;95520.38;4995435;28;20026;-27
2023/03/14 10:53:17;;;;;;;13.30;6.32;;;;;;;15.88;64.82;95518.22;5001980;28;20033;-27
2023/03/14 10:55:45;;;;;;;13.13;4.90;;;;;;;15.98;64.20;95509.34;5009087;28;20556;-27
2023/03/14 10:58:26;;;;;;;12.48;3.50;;;;;;;15.80;64.86;95509.69;4995670;28;20154;-26
2023/03/14 11:01:04;;;;;;;7.55;3.00;;;;;;;15.97;63.92;95507.84;4995723;28;20037;-27
2023/03/14 11:03:34;;;;;;;6.35;3.13;;;;;;;15.85;64.71;95505.50;4996337;28;20042;-27
2023/03/14 11:06:12;;;;;;;6.25;2.75;;;;;;;15.97;64.46;95499.66;4995623;28;20068;-27
2023/03/14 11:08:53;;;;;;;6.25;3.05;;;;;;;15.80;64.92;95479.63;5002524;28;20026;-27
2023/03/14 11:11:23;;;;;;;4.90;2.95;;;;;;;15.98;64.67;95482.00;5004887;28;20026;-27
2023/03/14 11:14:06;;;;;;;8.35;2.67;;;;;;;16.04;63.35;95482.81;4996851;28;20018;-27
2023/03/14 11:16:49;;;;;;;8.88;3.67;;;;;;;16.03;64.14;95472.34;4995475;28;20029;-27
2023/03/14 11:19:20;;;;;;;7.00;3.37;;;;;;;15.78;64.84;95462.94;4995674;28;20023;-27
2023/03/14 11:21:45;;;;;;;8.23;3.13;;;;;;;16.11;63.32;95457.00;4996054;28;20018;-27
2023/03/14 11:24:37;;;;;;;6.45;2.90;;;;;;;16.14;63.57;95450.56;4997582;28;20053;-27
2023/03/14 11:27:25;;;;;;;4.93;2.75;;;;;;;16.16;63.26;95448.09;4993949;28;20398;-27
2023/03/14 11:30:21;;;;;;;5.80;3.00;;;;;;;16.08;63.17;95442.31;4995055;28;20085;-27
2023/03/14 11:32:49;;;;;;;6.25;2.67;;;;;;;16.02;63.14;95444.25;4995284;28;20030;-27